Time;durP1;ratioP1;P1;durP2;ratioP2;P2;SDS_P1;SDS_P2;PMS_P1;PMS_P2;Temp;Humidity;BMP_temperature;BMP_pressure;BME280_temperature;BME280_humidity;BME280_pressure;Samples;Min_cycle;Max_cycle;Signal;HPM_P1;HPM_P2
2023/09/29 00:01:15;;;;;;;5.73;3.97;;;15.30;99.90;;;;;;467125;253;29420;-72
2023/09/29 00:03:17;;;;;;;3.93;3.60;;;15.30;99.90;;;;;;467152;249;29282;-70
2023/09/29 00:05:18;;;;;;;6.60;4.27;;;15.40;99.90;;;;;;467136;253;29348;-70
2023/09/29 00:07:19;;;;;;;4.27;3.87;;;15.40;99.90;;;;;;467167;254;28979;-72
2023/09/29 00:09:20;;;;;;;5.13;4.63;;;15.40;99.90;;;;;;467172;253;28866;-70
2023/09/29 00:11:21;;;;;;;4.27;3.93;;;15.40;99.90;;;;;;467167;253;28865;-71
2023/09/29 00:13:23;;;;;;;6.73;4.10;;;15.40;99.90;;;;;;467124;254;28905;-71
2023/09/29 00:15:24;;;;;;;4.07;3.70;;;15.40;99.90;;;;;;467162;254;28995;-71
2023/09/29 00:17:25;;;;;;;3.77;3.43;;;15.40;99.90;;;;;;467173;253;28972;-71
2023/09/29 00:19:26;;;;;;;4.57;3.87;;;15.40;99.90;;;;;;467158;253;28828;-70
2023/09/29 00:21:28;;;;;;;4.50;4.10;;;15.50;99.90;;;;;;467159;253;28865;-71
2023/09/29 00:23:29;;;;;;;3.63;3.33;;;15.50;99.90;;;;;;467162;249;29938;-70
2023/09/29 00:25:30;;;;;;;4.93;3.70;;;15.40;99.90;;;;;;467184;253;29388;-70
2023/09/29 00:27:31;;;;;;;4.23;3.73;;;15.30;99.90;;;;;;467147;253;29451;-72
2023/09/29 00:29:33;;;;;;;4.43;4.00;;;15.30;99.90;;;;;;467152;253;29422;-71
2023/09/29 00:31:34;;;;;;;3.30;3.00;;;15.20;99.90;;;;;;467135;254;28928;-70
2023/09/29 00:33:35;;;;;;;4.30;3.80;;;15.20;99.90;;;;;;467143;253;28883;-71
2023/09/29 00:35:37;;;;;;;4.63;3.70;;;15.10;99.90;;;;;;467088;253;28951;-71
2023/09/29 00:37:39;;;;;;;5.10;3.90;;;15.10;99.90;;;;;;467072;250;28940;-71
2023/09/29 00:39:39;;;;;;;4.20;3.80;;;15.10;99.90;;;;;;467055;254;28884;-71
2023/09/29 00:41:41;;;;;;;4.47;4.07;;;15.10;99.90;;;;;;467146;253;28865;-70
2023/09/29 00:43:41;;;;;;;6.70;4.20;;;15.10;99.90;;;;;;467153;249;28901;-71
2023/09/29 00:45:43;;;;;;;5.20;4.20;;;15.00;99.90;;;;;;467161;254;28841;-70
2023/09/29 00:47:44;;;;;;;7.00;3.77;;;15.10;99.90;;;;;;467141;253;28870;-70
2023/09/29 00:49:48;;;;;;;4.40;4.00;;;15.10;99.90;;;;;;467101;253;30034;-70
2023/09/29 00:51:47;;;;;;;5.03;3.90;;;15.10;99.90;;;;;;466978;254;29383;-71
2023/09/29 00:53:48;;;;;;;4.03;3.70;;;15.00;99.90;;;;;;467125;253;29543;-71
2023/09/29 00:55:49;;;;;;;4.87;3.73;;;15.00;99.90;;;;;;467122;253;28875;-71
2023/09/29 00:57:51;;;;;;;4.70;4.07;;;15.00;99.90;;;;;;467151;253;28872;-71
2023/09/29 00:59:51;;;;;;;4.10;3.70;;;15.00;99.90;;;;;;467162;253;28892;-70
2023/09/29 01:01:53;;;;;;;4.30;3.90;;;15.00;99.90;;;;;;467159;253;28844;-70
2023/09/29 01:03:54;;;;;;;4.30;3.90;;;15.10;99.90;;;;;;467151;253;28865;-71
2023/09/29 01:05:55;;;;;;;5.57;4.20;;;15.00;99.90;;;;;;467115;253;28622;-71
2023/09/29 01:07:56;;;;;;;5.47;4.33;;;15.00;99.90;;;;;;467146;253;28908;-71
2023/09/29 01:09:58;;;;;;;5.30;4.13;;;15.00;99.90;;;;;;467187;254;28970;-73
2023/09/29 01:12:10;;;;;;;5.83;4.10;;;15.10;99.90;;;;;;467141;253;29060;-71
2023/09/29 01:14:01;;;;;;;4.93;4.20;;;15.10;99.90;;;;;;465953;254;28931;-71
2023/09/29 01:16:02;;;;;;;4.70;4.30;;;15.10;99.90;;;;;;467077;254;28865;-70
2023/09/29 01:18:03;;;;;;;4.57;4.00;;;15.10;99.90;;;;;;467178;249;28825;-71
2023/09/29 01:20:06;;;;;;;4.70;4.03;;;15.20;99.90;;;;;;467018;250;29069;-72
2023/09/29 01:22:06;;;;;;;4.33;4.03;;;15.10;99.90;;;;;;467074;254;28424;-71
2023/09/29 01:24:07;;;;;;;4.77;4.10;;;15.10;99.90;;;;;;467124;253;28904;-70
2023/09/29 01:26:08;;;;;;;4.27;3.87;;;15.10;99.90;;;;;;467177;253;28849;-71
2023/09/29 01:28:10;;;;;;;5.60;3.90;;;15.10;99.90;;;;;;467167;254;28972;-71
2023/09/29 01:30:19;;;;;;;4.87;4.40;;;15.20;99.90;;;;;;467134;253;29366;-71
2023/09/29 01:32:20;;;;;;;4.00;3.70;;;15.20;99.90;;;;;;467132;254;29466;-71
2023/09/29 01:34:24;;;;;;;3.80;3.50;;;15.20;99.90;;;;;;467148;253;29322;-70
2023/09/29 01:36:24;;;;;;;3.73;3.43;;;15.30;99.90;;;;;;467035;254;29426;-71
2023/09/29 01:38:25;;;;;;;5.43;3.77;;;15.20;99.90;;;;;;467124;254;28664;-73
2023/09/29 01:40:25;;;;;;;4.83;4.00;;;15.30;99.90;;;;;;467137;253;28837;-71
2023/09/29 01:42:26;;;;;;;4.67;4.07;;;15.30;99.90;;;;;;467148;253;29039;-70
2023/09/29 01:44:28;;;;;;;3.80;3.50;;;15.30;99.90;;;;;;467146;253;28922;-70
2023/09/29 01:46:30;;;;;;;4.60;4.13;;;15.30;99.90;;;;;;467161;253;29208;-70
2023/09/29 01:48:30;;;;;;;4.70;4.20;;;15.30;99.90;;;;;;467150;253;28875;-72
2023/09/29 01:50:34;;;;;;;4.57;3.40;;;15.30;99.90;;;;;;467145;253;28908;-72
2023/09/29 01:52:36;;;;;;;6.00;3.77;;;15.30;99.90;;;;;;467156;253;29325;-71
2023/09/29 01:54:37;;;;;;;4.30;3.90;;;15.30;99.90;;;;;;467145;253;28880;-70
2023/09/29 01:56:38;;;;;;;4.80;4.30;;;15.30;99.90;;;;;;467157;253;28877;-70
2023/09/29 01:58:40;;;;;;;4.37;3.97;;;15.30;99.90;;;;;;467177;250;28916;-71
2023/09/29 02:00:41;;;;;;;3.90;3.60;;;15.40;99.90;;;;;;467149;253;28981;-72
2023/09/29 02:02:43;;;;;;;7.93;4.10;;;15.40;99.90;;;;;;467127;250;28940;-73
2023/09/29 02:04:43;;;;;;;4.20;3.80;;;15.40;99.90;;;;;;467087;253;28891;-71
2023/09/29 02:06:44;;;;;;;5.47;4.73;;;15.50;99.90;;;;;;467112;253;29310;-71
2023/09/29 02:08:46;;;;;;;5.30;4.10;;;15.40;99.90;;;;;;467131;254;28832;-71
2023/09/29 02:10:50;;;;;;;6.50;4.77;;;15.50;99.90;;;;;;467106;253;29465;-71
2023/09/29 02:12:48;;;;;;;4.73;4.13;;;15.40;99.90;;;;;;466948;254;29373;-71
2023/09/29 02:14:51;;;;;;;5.73;4.27;;;15.40;99.90;;;;;;467139;253;29355;-71
2023/09/29 02:16:51;;;;;;;4.43;4.03;;;15.40;99.90;;;;;;467093;253;29367;-73
2023/09/29 02:18:52;;;;;;;7.03;3.70;;;15.40;99.90;;;;;;467138;253;28828;-70
2023/09/29 02:20:55;;;;;;;5.00;4.20;;;15.40;99.90;;;;;;467123;253;28960;-70
2023/09/29 02:22:55;;;;;;;4.87;4.10;;;15.40;99.90;;;;;;467017;250;28857;-70
2023/09/29 02:24:56;;;;;;;4.80;3.80;;;15.50;99.90;;;;;;467157;253;28835;-70
2023/09/29 02:26:57;;;;;;;4.63;4.10;;;15.50;99.90;;;;;;467148;253;28920;-71
2023/09/29 02:28:58;;;;;;;4.30;3.90;;;15.50;99.90;;;;;;467141;253;28833;-70
2023/09/29 02:31:02;;;;;;;4.47;4.07;;;15.50;99.90;;;;;;467142;253;28889;-71
2023/09/29 02:33:01;;;;;;;4.33;3.63;;;15.50;99.90;;;;;;467009;253;28864;-72
2023/09/29 02:35:02;;;;;;;4.07;3.43;;;15.50;99.90;;;;;;467140;254;28826;-70
2023/09/29 02:37:03;;;;;;;5.07;4.30;;;15.50;99.90;;;;;;467146;253;29452;-70
2023/09/29 02:39:04;;;;;;;3.93;3.40;;;15.50;99.90;;;;;;467142;253;29411;-70
2023/09/29 02:41:07;;;;;;;4.50;4.10;;;15.50;99.90;;;;;;467126;253;29440;-71
2023/09/29 02:43:07;;;;;;;4.60;4.20;;;15.50;99.90;;;;;;467102;254;28873;-71
2023/09/29 02:45:08;;;;;;;4.30;3.90;;;15.50;99.90;;;;;;467140;253;28922;-70
2023/09/29 02:47:09;;;;;;;5.07;3.67;;;15.40;99.90;;;;;;467114;253;28997;-71
2023/09/29 02:49:11;;;;;;;4.50;3.93;;;15.40;99.90;;;;;;467111;253;28906;-70
2023/09/29 02:51:12;;;;;;;4.70;3.87;;;15.40;99.90;;;;;;467155;253;28901;-70
2023/09/29 02:53:14;;;;;;;4.33;3.93;;;15.50;99.90;;;;;;467149;254;29419;-71
2023/09/29 02:55:14;;;;;;;4.30;3.90;;;15.40;99.90;;;;;;467090;253;29352;-71
2023/09/29 02:57:16;;;;;;;3.70;3.40;;;15.40;99.90;;;;;;467122;253;29352;-70
2023/09/29 02:59:17;;;;;;;5.17;3.60;;;15.50;99.90;;;;;;467159;253;29522;-70
2023/09/29 03:01:18;;;;;;;4.90;4.10;;;15.50;99.90;;;;;;467152;253;28825;-70
2023/09/29 03:03:19;;;;;;;5.13;4.30;;;15.50;99.90;;;;;;467135;253;29003;-70
2023/09/29 03:05:21;;;;;;;4.47;3.77;;;15.50;99.90;;;;;;467112;250;28832;-71
2023/09/29 03:07:22;;;;;;;4.60;3.90;;;15.50;99.90;;;;;;467115;253;29068;-71
2023/09/29 03:09:23;;;;;;;6.57;3.77;;;15.40;99.90;;;;;;467139;253;29204;-72
2023/09/29 03:11:25;;;;;;;4.17;3.77;;;15.50;99.90;;;;;;467176;253;28830;-70
2023/09/29 03:13:26;;;;;;;5.50;3.97;;;15.50;99.90;;;;;;467181;253;28933;-71
2023/09/29 03:15:27;;;;;;;4.07;3.67;;;15.40;99.90;;;;;;467140;253;28825;-71
2023/09/29 03:17:30;;;;;;;4.33;3.93;;;15.40;99.90;;;;;;467133;253;29372;-71
2023/09/29 03:19:34;;;;;;;4.33;3.87;;;15.50;99.90;;;;;;467174;253;29345;-71
2023/09/29 03:21:32;;;;;;;5.70;4.10;;;15.50;99.90;;;;;;466731;254;29283;-70
2023/09/29 03:23:32;;;;;;;4.13;3.83;;;15.50;99.90;;;;;;467086;254;29489;-70
2023/09/29 03:25:33;;;;;;;3.80;3.50;;;15.50;99.90;;;;;;467170;253;28948;-71
2023/09/29 03:27:34;;;;;;;4.13;3.73;;;15.50;99.90;;;;;;467171;253;28865;-71
2023/09/29 03:29:36;;;;;;;6.40;4.03;;;15.50;99.90;;;;;;467179;253;28887;-71
2023/09/29 03:31:37;;;;;;;4.40;4.00;;;15.50;99.90;;;;;;467139;253;28837;-70
2023/09/29 03:33:38;;;;;;;4.03;3.63;;;15.50;99.90;;;;;;467167;253;28925;-71
2023/09/29 03:35:39;;;;;;;3.70;3.40;;;15.50;99.90;;;;;;467168;253;28869;-71
2023/09/29 03:37:42;;;;;;;4.00;3.60;;;15.50;99.90;;;;;;467148;253;28894;-71
2023/09/29 03:39:42;;;;;;;5.40;3.60;;;15.50;99.90;;;;;;467102;254;28893;-70
2023/09/29 03:41:43;;;;;;;4.20;3.47;;;15.50;99.90;;;;;;467152;253;28844;-71
2023/09/29 03:43:44;;;;;;;4.30;3.30;;;15.50;99.90;;;;;;467117;249;29440;-70
2023/09/29 03:45:46;;;;;;;7.03;3.87;;;15.50;99.90;;;;;;467142;253;29428;-73
2023/09/29 03:47:47;;;;;;;4.33;3.90;;;15.50;99.90;;;;;;467005;253;29312;-71
2023/09/29 03:49:48;;;;;;;4.53;4.13;;;15.40;99.90;;;;;;467111;253;28900;-71
2023/09/29 03:51:51;;;;;;;4.53;3.60;;;15.40;99.90;;;;;;467087;253;28858;-70
2023/09/29 03:53:51;;;;;;;4.73;4.00;;;15.30;99.90;;;;;;467101;254;28833;-71
2023/09/29 03:55:52;;;;;;;4.80;4.40;;;15.30;99.90;;;;;;467138;253;28955;-70
2023/09/29 03:57:53;;;;;;;5.17;3.90;;;15.30;99.90;;;;;;467151;254;28833;-70
2023/09/29 03:59:55;;;;;;;7.17;4.53;;;15.20;99.90;;;;;;467143;253;29436;-71
2023/09/29 04:01:56;;;;;;;5.03;3.93;;;15.20;99.90;;;;;;467164;250;29641;-71
2023/09/29 04:03:57;;;;;;;4.50;4.10;;;15.10;99.90;;;;;;467179;253;29292;-70
2023/09/29 04:05:58;;;;;;;5.20;4.70;;;15.10;99.90;;;;;;467170;253;29449;-71
2023/09/29 04:08:01;;;;;;;4.83;3.90;;;15.10;99.90;;;;;;467161;253;28940;-70
2023/09/29 04:10:01;;;;;;;10.00;5.00;;;15.10;99.90;;;;;;467118;253;28872;-70
2023/09/29 04:12:02;;;;;;;5.10;4.50;;;15.20;99.90;;;;;;467179;253;29078;-72
2023/09/29 04:14:03;;;;;;;4.60;4.20;;;15.20;99.90;;;;;;467184;253;28905;-70
2023/09/29 04:16:05;;;;;;;4.70;3.47;;;15.30;99.90;;;;;;467124;253;28987;-70
2023/09/29 04:18:06;;;;;;;4.30;3.90;;;15.30;99.90;;;;;;467142;253;28841;-70
2023/09/29 04:20:07;;;;;;;4.20;3.80;;;15.30;99.90;;;;;;467147;253;28989;-71
2023/09/29 04:22:08;;;;;;;4.80;4.33;;;15.30;99.90;;;;;;467177;253;28980;-72
2023/09/29 04:24:10;;;;;;;5.73;3.70;;;15.30;99.90;;;;;;467136;254;29352;-70
2023/09/29 04:26:11;;;;;;;6.03;4.43;;;15.40;99.90;;;;;;467148;253;29538;-71
2023/09/29 04:28:12;;;;;;;5.13;4.00;;;15.40;99.90;;;;;;467140;254;30082;-71
2023/09/29 04:30:13;;;;;;;4.73;4.17;;;15.40;99.90;;;;;;467164;254;29500;-71
2023/09/29 04:32:15;;;;;;;4.73;3.80;;;15.40;99.90;;;;;;467062;254;28972;-72
2023/09/29 04:34:16;;;;;;;4.03;3.73;;;15.50;99.90;;;;;;467146;253;28828;-70
2023/09/29 04:36:17;;;;;;;4.47;4.00;;;15.50;99.90;;;;;;467139;253;28907;-71
2023/09/29 04:38:18;;;;;;;4.20;3.80;;;15.50;99.90;;;;;;467157;253;28885;-70
2023/09/29 04:40:20;;;;;;;4.27;3.87;;;15.40;99.90;;;;;;467152;253;28865;-70
2023/09/29 04:42:21;;;;;;;7.53;4.17;;;15.40;99.90;;;;;;467145;253;28868;-70
2023/09/29 04:44:22;;;;;;;8.77;3.97;;;15.30;99.90;;;;;;467132;254;28888;-73
2023/09/29 04:46:23;;;;;;;4.40;4.00;;;15.30;99.90;;;;;;467106;254;29374;-71
2023/09/29 04:48:25;;;;;;;4.93;4.30;;;15.30;99.90;;;;;;467172;253;29379;-72
2023/09/29 04:50:26;;;;;;;4.80;4.33;;;15.30;99.90;;;;;;467173;253;29355;-70
2023/09/29 04:52:27;;;;;;;5.87;4.13;;;15.30;99.90;;;;;;467165;253;29353;-70
2023/09/29 04:54:28;;;;;;;6.10;4.30;;;15.30;99.90;;;;;;467140;253;28824;-70
2023/09/29 04:56:30;;;;;;;4.60;4.03;;;15.30;99.90;;;;;;467165;250;28872;-71
2023/09/29 04:58:31;;;;;;;5.17;4.27;;;15.30;99.90;;;;;;467151;253;28994;-71
2023/09/29 05:00:34;;;;;;;4.77;4.03;;;15.30;99.90;;;;;;467151;253;28855;-71
2023/09/29 05:02:33;;;;;;;4.90;4.03;;;15.30;99.90;;;;;;467104;254;28884;-70
2023/09/29 05:04:35;;;;;;;5.50;3.83;;;15.30;99.90;;;;;;467185;253;28848;-70
2023/09/29 05:06:36;;;;;;;4.73;4.30;;;15.40;99.90;;;;;;467138;253;28860;-71
2023/09/29 05:08:37;;;;;;;6.93;4.50;;;15.40;99.90;;;;;;467116;253;28964;-71
2023/09/29 05:10:38;;;;;;;4.90;4.30;;;15.40;99.90;;;;;;467116;253;29312;-71
2023/09/29 05:12:40;;;;;;;5.10;4.20;;;15.50;99.90;;;;;;467118;253;29393;-71
2023/09/29 05:14:41;;;;;;;4.03;3.43;;;15.40;99.90;;;;;;467153;253;29930;-71
2023/09/29 05:16:42;;;;;;;4.30;3.70;;;15.50;99.90;;;;;;467115;253;29499;-71
2023/09/29 05:18:43;;;;;;;4.17;3.80;;;15.50;99.90;;;;;;467076;253;28964;-71
2023/09/29 05:20:45;;;;;;;5.10;4.30;;;15.50;99.90;;;;;;467062;249;28895;-71
2023/09/29 05:22:46;;;;;;;5.90;4.50;;;15.50;99.90;;;;;;467059;250;28928;-70
2023/09/29 05:24:47;;;;;;;5.13;4.37;;;15.60;99.90;;;;;;467148;253;28864;-72
2023/09/29 05:26:48;;;;;;;4.43;3.90;;;15.60;99.90;;;;;;467093;254;28984;-70
2023/09/29 05:28:51;;;;;;;4.00;3.70;;;15.60;99.90;;;;;;467096;253;28904;-70
2023/09/29 05:30:51;;;;;;;4.00;3.60;;;15.60;99.90;;;;;;467048;253;28826;-70
2023/09/29 05:32:52;;;;;;;3.90;3.60;;;15.60;99.90;;;;;;467142;253;28826;-71
2023/09/29 05:34:53;;;;;;;4.53;4.10;;;15.60;99.90;;;;;;467140;253;29533;-71
2023/09/29 05:36:55;;;;;;;6.83;4.30;;;15.60;99.90;;;;;;467141;253;29325;-71
2023/09/29 05:38:56;;;;;;;4.70;4.10;;;15.60;99.90;;;;;;467111;254;29426;-71
2023/09/29 05:40:57;;;;;;;6.07;4.13;;;15.50;99.90;;;;;;467169;253;29641;-71
2023/09/29 05:42:58;;;;;;;4.73;3.80;;;15.50;99.90;;;;;;467153;253;28829;-71
2023/09/29 05:45:00;;;;;;;4.70;4.20;;;15.50;99.90;;;;;;467157;249;28880;-71
2023/09/29 05:47:01;;;;;;;6.00;4.13;;;15.50;99.90;;;;;;467142;254;28833;-70
2023/09/29 05:49:02;;;;;;;3.90;3.50;;;15.50;99.90;;;;;;467138;254;28865;-71
2023/09/29 05:51:03;;;;;;;5.40;4.10;;;15.60;99.90;;;;;;467144;254;29225;-72
2023/09/29 05:53:05;;;;;;;6.50;4.23;;;15.60;99.90;;;;;;467152;254;28909;-71
2023/09/29 05:55:06;;;;;;;4.40;4.00;;;15.60;99.90;;;;;;467176;253;28868;-71
2023/09/29 05:57:07;;;;;;;4.00;3.60;;;15.70;99.90;;;;;;467122;254;28837;-71
2023/09/29 05:59:09;;;;;;;3.73;3.30;;;15.70;99.90;;;;;;467148;253;29433;-71
2023/09/29 06:01:10;;;;;;;4.97;4.00;;;15.70;99.90;;;;;;467182;253;29491;-72
2023/09/29 06:03:11;;;;;;;3.40;3.17;;;15.80;99.90;;;;;;467182;254;29454;-70
2023/09/29 06:05:12;;;;;;;5.90;4.03;;;15.80;99.90;;;;;;467184;254;29493;-70
2023/09/29 06:07:13;;;;;;;4.77;3.87;;;15.90;99.90;;;;;;467157;253;28821;-71
2023/09/29 06:09:15;;;;;;;5.70;4.50;;;15.90;99.90;;;;;;467180;253;28925;-71
2023/09/29 06:11:16;;;;;;;5.07;4.57;;;15.90;99.90;;;;;;467174;253;28999;-71
2023/09/29 06:13:17;;;;;;;7.60;4.90;;;16.00;99.90;;;;;;467175;253;28821;-71
2023/09/29 06:15:19;;;;;;;4.83;3.90;;;16.00;99.90;;;;;;467165;253;28890;-71
2023/09/29 06:17:20;;;;;;;5.33;4.20;;;16.00;99.90;;;;;;467180;253;28952;-71
2023/09/29 06:19:21;;;;;;;7.70;4.57;;;16.10;99.90;;;;;;467146;253;28913;-70
2023/09/29 06:21:22;;;;;;;5.60;4.60;;;16.20;99.90;;;;;;467157;253;28870;-71
2023/09/29 06:23:23;;;;;;;3.60;3.30;;;16.30;99.90;;;;;;467146;253;28837;-71
2023/09/29 06:25:25;;;;;;;12.53;3.80;;;16.30;99.90;;;;;;467120;253;29340;-71
2023/09/29 06:27:26;;;;;;;8.70;4.50;;;16.40;99.90;;;;;;467161;253;29440;-73
2023/09/29 06:29:27;;;;;;;10.47;3.97;;;16.40;99.90;;;;;;467148;254;28930;-71
2023/09/29 06:31:29;;;;;;;5.30;4.20;;;16.50;99.90;;;;;;467127;253;28984;-71
2023/09/29 06:33:31;;;;;;;7.93;4.80;;;16.50;99.90;;;;;;467135;250;28872;-71
2023/09/29 06:35:31;;;;;;;13.53;4.47;;;16.50;99.90;;;;;;467119;254;29264;-71
2023/09/29 06:37:32;;;;;;;4.63;4.23;;;16.50;99.90;;;;;;467060;253;29372;-72
2023/09/29 06:39:34;;;;;;;5.97;4.33;;;16.50;99.90;;;;;;467142;253;29275;-71
2023/09/29 06:41:35;;;;;;;4.77;4.00;;;16.50;99.90;;;;;;467112;254;29466;-71
2023/09/29 06:43:37;;;;;;;7.47;4.13;;;16.50;99.90;;;;;;467133;253;28888;-70
2023/09/29 06:45:37;;;;;;;5.67;4.17;;;16.60;99.90;;;;;;467143;253;28964;-71
2023/09/29 06:47:39;;;;;;;4.77;4.30;;;16.70;99.90;;;;;;467144;253;28956;-70
2023/09/29 06:49:40;;;;;;;4.63;4.00;;;16.80;99.90;;;;;;467135;253;28866;-71
2023/09/29 06:51:41;;;;;;;4.07;3.67;;;16.90;99.90;;;;;;467103;253;28964;-70
2023/09/29 06:53:42;;;;;;;6.63;4.57;;;17.00;99.90;;;;;;467160;253;29213;-74
2023/09/29 06:55:44;;;;;;;3.80;3.50;;;17.10;99.90;;;;;;467156;253;28864;-71
2023/09/29 06:57:45;;;;;;;8.47;4.70;;;17.10;99.90;;;;;;467115;253;28935;-71
2023/09/29 06:59:46;;;;;;;9.50;4.80;;;17.10;99.90;;;;;;467118;253;29319;-72
2023/09/29 07:01:47;;;;;;;6.27;4.70;;;17.10;99.90;;;;;;467142;253;29337;-72
2023/09/29 07:03:49;;;;;;;4.70;4.20;;;17.20;99.90;;;;;;467156;253;29360;-74
2023/09/29 07:05:50;;;;;;;5.57;3.90;;;17.20;99.90;;;;;;467156;253;29353;-72
2023/09/29 07:07:51;;;;;;;4.23;3.80;;;17.20;99.90;;;;;;467119;253;28950;-72
2023/09/29 07:09:52;;;;;;;5.80;4.23;;;17.30;99.90;;;;;;467122;254;28848;-72
2023/09/29 07:11:54;;;;;;;5.40;4.00;;;17.40;99.90;;;;;;467144;253;28848;-72
2023/09/29 07:13:55;;;;;;;8.90;4.60;;;17.60;99.90;;;;;;467152;253;28987;-71
2023/09/29 07:15:56;;;;;;;5.50;3.93;;;17.60;99.90;;;;;;467119;253;28934;-71
2023/09/29 07:17:57;;;;;;;5.70;4.40;;;17.70;99.90;;;;;;467112;253;28964;-71
2023/09/29 07:19:59;;;;;;;5.50;4.27;;;17.80;99.90;;;;;;467151;253;28888;-75
2023/09/29 07:22:00;;;;;;;9.97;5.00;;;17.90;99.90;;;;;;467124;249;28873;-72
2023/09/29 07:24:01;;;;;;;5.57;4.27;;;18.10;99.90;;;;;;467134;253;28978;-71
2023/09/29 07:26:02;;;;;;;11.20;4.27;;;18.10;99.90;;;;;;467120;253;29351;-71
2023/09/29 07:28:04;;;;;;;9.53;4.80;;;18.30;99.90;;;;;;467128;253;29367;-71
2023/09/29 07:30:05;;;;;;;6.00;4.20;;;18.40;99.90;;;;;;467141;253;29369;-72
2023/09/29 07:32:06;;;;;;;4.30;3.60;;;18.60;99.90;;;;;;467126;249;28926;-73
2023/09/29 07:34:07;;;;;;;3.90;3.60;;;18.70;99.90;;;;;;467143;253;28877;-74
2023/09/29 07:36:09;;;;;;;8.60;4.83;;;18.70;99.90;;;;;;467121;253;28897;-73
2023/09/29 07:38:10;;;;;;;8.10;4.60;;;18.80;99.90;;;;;;467130;249;28983;-73
2023/09/29 07:40:12;;;;;;;5.10;4.00;;;18.90;99.90;;;;;;467133;253;28871;-74
2023/09/29 07:42:12;;;;;;;5.00;3.80;;;18.90;99.90;;;;;;467130;253;28907;-73
2023/09/29 07:44:14;;;;;;;5.90;3.90;;;19.00;99.90;;;;;;467130;253;28876;-72
2023/09/29 07:46:15;;;;;;;3.97;3.60;;;19.00;99.90;;;;;;467156;250;28948;-73
2023/09/29 07:48:16;;;;;;;3.90;3.33;;;19.10;99.90;;;;;;467151;253;28870;-72
2023/09/29 07:50:19;;;;;;;6.87;4.00;;;19.20;99.90;;;;;;467134;253;29364;-72
2023/09/29 07:52:25;;;;;;;4.20;3.80;;;19.30;99.90;;;;;;467092;254;29365;-73
2023/09/29 07:54:20;;;;;;;6.03;3.50;;;19.30;99.90;;;;;;466706;254;29447;-73
2023/09/29 07:56:21;;;;;;;5.10;4.00;;;19.30;99.90;;;;;;467134;253;28856;-74
2023/09/29 07:58:22;;;;;;;6.63;4.17;;;19.40;99.90;;;;;;467142;253;28849;-72
2023/09/29 08:00:24;;;;;;;7.63;4.47;;;19.50;99.90;;;;;;467034;253;28877;-73
2023/09/29 08:02:25;;;;;;;5.63;4.03;;;19.50;99.90;;;;;;467125;253;28915;-74
2023/09/29 08:04:26;;;;;;;6.23;4.30;;;19.50;99.90;;;;;;467049;254;28870;-72
2023/09/29 08:06:28;;;;;;;6.57;4.20;;;19.60;99.90;;;;;;467057;253;28944;-74
2023/09/29 08:08:29;;;;;;;5.23;3.67;;;19.60;99.90;;;;;;467127;249;28841;-73
2023/09/29 08:10:30;;;;;;;8.87;4.07;;;19.60;99.90;;;;;;467104;253;28988;-73
2023/09/29 08:12:31;;;;;;;4.23;3.63;;;19.70;99.90;;;;;;467137;253;28870;-73
2023/09/29 08:14:32;;;;;;;3.90;3.50;;;19.70;99.90;;;;;;467149;253;29425;-73
2023/09/29 08:16:34;;;;;;;5.07;3.50;;;19.70;99.90;;;;;;467115;249;29500;-74
2023/09/29 08:18:35;;;;;;;4.40;3.90;;;19.70;99.90;;;;;;467127;253;29384;-73
2023/09/29 08:20:37;;;;;;;7.23;4.07;;;19.70;99.90;;;;;;467124;253;28980;-73
2023/09/29 08:22:37;;;;;;;6.33;4.17;;;19.60;99.90;;;;;;467124;254;28906;-73
2023/09/29 08:24:39;;;;;;;4.97;4.30;;;19.60;99.90;;;;;;467108;253;28929;-72
2023/09/29 08:26:40;;;;;;;7.60;4.00;;;19.50;99.90;;;;;;467111;253;28880;-74
2023/09/29 08:28:41;;;;;;;9.00;4.57;;;19.50;99.90;;;;;;467118;253;28912;-75
2023/09/29 08:30:42;;;;;;;5.10;4.43;;;19.50;99.90;;;;;;467112;254;28879;-73
2023/09/29 08:32:44;;;;;;;4.83;3.97;;;19.60;99.90;;;;;;467140;253;29330;-75
2023/09/29 08:34:45;;;;;;;5.73;4.40;;;19.60;99.90;;;;;;467169;250;29424;-73
2023/09/29 08:36:46;;;;;;;8.00;4.30;;;19.60;99.90;;;;;;467135;253;28884;-73
2023/09/29 08:38:47;;;;;;;5.67;4.27;;;19.60;99.90;;;;;;467125;254;28846;-73
2023/09/29 08:40:49;;;;;;;6.00;4.20;;;19.60;99.90;;;;;;467148;254;28851;-73
2023/09/29 08:42:50;;;;;;;7.10;4.37;;;19.60;99.90;;;;;;467178;253;28868;-74
2023/09/29 08:44:52;;;;;;;5.40;3.80;;;19.60;99.90;;;;;;467186;253;28834;-72
2023/09/29 08:46:52;;;;;;;5.57;3.87;;;19.60;99.90;;;;;;467133;253;29110;-73
2023/09/29 08:48:54;;;;;;;8.93;4.30;;;19.70;99.90;;;;;;467179;253;28840;-73
2023/09/29 08:51:01;;;;;;;8.50;4.10;;;19.60;99.90;;;;;;467195;253;29010;-73
2023/09/29 08:52:56;;;;;;;4.57;4.07;;;19.60;99.90;;;;;;466728;254;29471;-73
2023/09/29 08:54:57;;;;;;;4.93;4.43;;;19.60;99.90;;;;;;467168;253;29505;-72
2023/09/29 08:56:59;;;;;;;5.80;4.27;;;19.70;99.90;;;;;;467156;253;29455;-73
2023/09/29 08:59:00;;;;;;;6.57;4.47;;;19.70;99.90;;;;;;467177;253;29422;-76
2023/09/29 09:01:01;;;;;;;6.53;4.50;;;19.70;99.90;;;;;;467198;249;28822;-73
2023/09/29 09:03:03;;;;;;;11.53;4.30;;;19.80;99.90;;;;;;467174;253;29006;-73
2023/09/29 09:05:04;;;;;;;4.67;3.70;;;19.80;99.90;;;;;;467143;253;29084;-73
2023/09/29 09:07:05;;;;;;;6.00;4.33;;;19.70;99.90;;;;;;467116;254;28976;-73
2023/09/29 09:09:08;;;;;;;6.07;4.07;;;19.80;99.90;;;;;;467161;253;28967;-74
2023/09/29 09:11:07;;;;;;;7.40;4.37;;;19.80;99.90;;;;;;467047;254;28949;-73
2023/09/29 09:13:09;;;;;;;6.33;4.63;;;19.90;99.90;;;;;;467161;253;28902;-73
2023/09/29 09:15:14;;;;;;;6.60;4.67;;;19.80;99.90;;;;;;467128;253;28876;-72
2023/09/29 09:17:11;;;;;;;4.33;3.80;;;19.90;99.90;;;;;;466931;254;29343;-72
2023/09/29 09:19:12;;;;;;;6.40;4.20;;;19.90;99.90;;;;;;467159;253;29360;-73
2023/09/29 09:21:14;;;;;;;7.63;4.90;;;19.90;99.90;;;;;;467145;253;29427;-72
2023/09/29 09:23:15;;;;;;;6.23;4.80;;;19.90;99.90;;;;;;467131;253;29459;-73
2023/09/29 09:25:17;;;;;;;6.07;4.60;;;20.00;99.90;;;;;;467164;253;28880;-72
2023/09/29 09:27:18;;;;;;;3.77;3.47;;;20.00;99.90;;;;;;467138;253;28905;-73
2023/09/29 09:29:19;;;;;;;5.20;4.70;;;20.00;99.90;;;;;;467077;250;28987;-73
2023/09/29 09:31:20;;;;;;;5.33;4.37;;;20.10;99.90;;;;;;467139;253;28872;-73
2023/09/29 09:33:21;;;;;;;5.70;3.90;;;20.10;99.90;;;;;;467131;253;28884;-73
2023/09/29 09:35:22;;;;;;;11.50;5.33;;;20.20;99.90;;;;;;467144;254;29333;-74
2023/09/29 09:37:24;;;;;;;4.37;3.97;;;20.20;99.90;;;;;;467145;253;28941;-73
2023/09/29 09:39:25;;;;;;;5.03;4.17;;;20.30;99.90;;;;;;467114;253;28891;-73
2023/09/29 09:41:26;;;;;;;6.13;3.97;;;20.30;99.90;;;;;;467118;253;29292;-72
2023/09/29 09:43:29;;;;;;;4.33;3.60;;;20.50;99.90;;;;;;467147;253;29305;-72
2023/09/29 09:45:29;;;;;;;4.50;4.10;;;20.60;99.90;;;;;;467097;254;29542;-74
2023/09/29 09:47:30;;;;;;;4.10;3.70;;;20.70;99.90;;;;;;467154;254;29111;-73
2023/09/29 09:49:32;;;;;;;7.17;4.10;;;20.70;99.90;;;;;;467144;253;28892;-73
2023/09/29 09:51:33;;;;;;;4.30;3.90;;;20.90;99.90;;;;;;467105;254;28929;-73
2023/09/29 09:53:34;;;;;;;5.97;4.10;;;21.20;99.90;;;;;;467113;249;28845;-73
2023/09/29 09:55:35;;;;;;;3.87;3.40;;;21.10;99.90;;;;;;467142;254;28880;-73
2023/09/29 09:57:37;;;;;;;5.70;4.10;;;21.00;99.90;;;;;;467123;253;28947;-73
2023/09/29 09:59:39;;;;;;;4.10;3.40;;;20.90;99.90;;;;;;467081;254;28964;-73
2023/09/29 10:01:39;;;;;;;4.67;3.20;;;20.90;99.90;;;;;;467110;254;28937;-76
2023/09/29 10:03:40;;;;;;;4.77;3.47;;;20.90;99.90;;;;;;467170;253;28895;-73
2023/09/29 10:05:41;;;;;;;6.40;4.43;;;20.90;99.90;;;;;;467143;253;29495;-73
2023/09/29 10:07:43;;;;;;;5.83;3.70;;;20.90;99.90;;;;;;467115;249;29314;-73
2023/09/29 10:09:44;;;;;;;5.93;3.70;;;20.80;99.90;;;;;;467126;253;29370;-73
2023/09/29 10:11:47;;;;;;;5.53;3.70;;;20.80;99.90;;;;;;467141;253;29337;-73
2023/09/29 10:13:48;;;;;;;8.93;3.87;;;20.80;99.90;;;;;;467039;254;28938;-73
2023/09/29 10:15:48;;;;;;;7.07;4.27;;;20.80;99.90;;;;;;467082;254;28878;-74
2023/09/29 10:17:49;;;;;;;10.10;3.80;;;20.90;99.90;;;;;;467120;254;28834;-73
2023/09/29 10:19:54;;;;;;;7.20;3.77;;;20.90;99.90;;;;;;467140;253;28879;-73
2023/09/29 10:21:53;;;;;;;4.20;3.40;;;20.90;99.90;;;;;;466748;254;28988;-74
2023/09/29 10:23:53;;;;;;;6.90;4.17;;;20.90;99.90;;;;;;467032;254;28844;-73
2023/09/29 10:25:54;;;;;;;4.97;3.63;;;20.90;99.90;;;;;;467111;254;28869;-73
2023/09/29 10:27:56;;;;;;;6.37;4.03;;;20.80;99.90;;;;;;467155;253;28817;-72
2023/09/29 10:29:56;;;;;;;3.80;3.50;;;20.80;99.90;;;;;;467144;253;29354;-73